sensor_id;sensor_type;location;lat;lon;timestamp;P1;durP1;ratioP1;P2;durP2;ratioP2
16784;SDS011;8509;52.178;5.404;2024-02-21T00:00:55;7.20;;;1.67;;
16784;SDS011;8509;52.178;5.404;2024-02-21T00:03:21;6.65;;;1.80;;
16784;SDS011;8509;52.178;5.404;2024-02-21T00:05:46;2.17;;;0.88;;
16784;SDS011;8509;52.178;5.404;2024-02-21T00:08:12;3.78;;;1.75;;
16784;SDS011;8509;52.178;5.404;2024-02-21T00:10:38;11.18;;;1.77;;
16784;SDS011;8509;52.178;5.404;2024-02-21T00:13:03;6.03;;;1.35;;
16784;SDS011;8509;52.178;5.404;2024-02-21T00:15:29;5.15;;;1.45;;
16784;SDS011;8509;52.178;5.404;2024-02-21T00:17:55;10.93;;;1.60;;
16784;SDS011;8509;52.178;5.404;2024-02-21T00:20:24;3.17;;;1.73;;
16784;SDS011;8509;52.178;5.404;2024-02-21T00:22:51;5.95;;;2.35;;
16784;SDS011;8509;52.178;5.404;2024-02-21T00:25:16;6.78;;;1.73;;
16784;SDS011;8509;52.178;5.404;2024-02-21T00:27:42;4.72;;;1.30;;
16784;SDS011;8509;52.178;5.404;2024-02-21T00:30:08;6.78;;;1.58;;
16784;SDS011;8509;52.178;5.404;2024-02-21T00:32:34;12.73;;;2.00;;
16784;SDS011;8509;52.178;5.404;2024-02-21T00:35:00;13.40;;;2.28;;
16784;SDS011;8509;52.178;5.404;2024-02-21T00:37:26;2.05;;;1.10;;
16784;SDS011;8509;52.178;5.404;2024-02-21T00:39:53;4.05;;;1.50;;
16784;SDS011;8509;52.178;5.404;2024-02-21T00:42:19;6.75;;;1.52;;
16784;SDS011;8509;52.178;5.404;2024-02-21T00:44:45;1.63;;;1.52;;
16784;SDS011;8509;52.178;5.404;2024-02-21T00:47:10;4.38;;;1.17;;
16784;SDS011;8509;52.178;5.404;2024-02-21T00:49:36;2.22;;;1.75;;
16784;SDS011;8509;52.178;5.404;2024-02-21T00:52:02;8.00;;;1.50;;
16784;SDS011;8509;52.178;5.404;2024-02-21T00:54:27;4.60;;;1.40;;
16784;SDS011;8509;52.178;5.404;2024-02-21T00:56:53;6.55;;;1.48;;
16784;SDS011;8509;52.178;5.404;2024-02-21T00:59:20;4.57;;;1.88;;
16784;SDS011;8509;52.178;5.404;2024-02-21T01:01:46;17.63;;;2.50;;
16784;SDS011;8509;52.178;5.404;2024-02-21T01:04:11;8.13;;;1.40;;
16784;SDS011;8509;52.178;5.404;2024-02-21T01:06:37;8.70;;;1.90;;
16784;SDS011;8509;52.178;5.404;2024-02-21T01:09:03;8.45;;;1.85;;
16784;SDS011;8509;52.178;5.404;2024-02-21T01:11:29;4.43;;;1.30;;
16784;SDS011;8509;52.178;5.404;2024-02-21T01:13:55;10.27;;;2.83;;
16784;SDS011;8509;52.178;5.404;2024-02-21T01:16:21;6.18;;;1.77;;
16784;SDS011;8509;52.178;5.404;2024-02-21T01:18:46;3.63;;;1.58;;
16784;SDS011;8509;52.178;5.404;2024-02-21T01:21:12;8.68;;;2.15;;
16784;SDS011;8509;52.178;5.404;2024-02-21T01:23:38;8.95;;;1.70;;
16784;SDS011;8509;52.178;5.404;2024-02-21T01:26:03;5.35;;;1.65;;
16784;SDS011;8509;52.178;5.404;2024-02-21T01:28:30;4.60;;;1.80;;
16784;SDS011;8509;52.178;5.404;2024-02-21T01:30:58;6.88;;;1.95;;
16784;SDS011;8509;52.178;5.404;2024-02-21T01:33:24;9.85;;;3.00;;
16784;SDS011;8509;52.178;5.404;2024-02-21T01:35:50;6.60;;;2.58;;
16784;SDS011;8509;52.178;5.404;2024-02-21T01:38:15;4.88;;;2.30;;
16784;SDS011;8509;52.178;5.404;2024-02-21T01:40:41;5.57;;;2.00;;
16784;SDS011;8509;52.178;5.404;2024-02-21T01:43:17;7.45;;;2.05;;
16784;SDS011;8509;52.178;5.404;2024-02-21T01:45:48;6.80;;;1.70;;
16784;SDS011;8509;52.178;5.404;2024-02-21T01:48:18;12.02;;;2.13;;
16784;SDS011;8509;52.178;5.404;2024-02-21T01:50:45;16.15;;;2.08;;
16784;SDS011;8509;52.178;5.404;2024-02-21T01:53:12;7.65;;;2.00;;
16784;SDS011;8509;52.178;5.404;2024-02-21T01:55:45;7.95;;;2.13;;
16784;SDS011;8509;52.178;5.404;2024-02-21T01:58:13;4.78;;;2.00;;
16784;SDS011;8509;52.178;5.404;2024-02-21T02:00:43;8.73;;;2.28;;
16784;SDS011;8509;52.178;5.404;2024-02-21T02:03:10;6.03;;;2.20;;
16784;SDS011;8509;52.178;5.404;2024-02-21T02:05:47;10.77;;;2.08;;
16784;SDS011;8509;52.178;5.404;2024-02-21T02:08:15;6.30;;;1.95;;
16784;SDS011;8509;52.178;5.404;2024-02-21T02:10:41;19.10;;;2.10;;
16784;SDS011;8509;52.178;5.404;2024-02-21T02:13:08;10.40;;;1.90;;
16784;SDS011;8509;52.178;5.404;2024-02-21T02:15:47;6.15;;;2.60;;
16784;SDS011;8509;52.178;5.404;2024-02-21T02:18:14;5.10;;;2.03;;
16784;SDS011;8509;52.178;5.404;2024-02-21T02:20:41;8.85;;;2.63;;
16784;SDS011;8509;52.178;5.404;2024-02-21T02:25:57;7.63;;;2.60;;
16784;SDS011;8509;52.178;5.404;2024-02-21T02:28:24;14.48;;;2.28;;
16784;SDS011;8509;52.178;5.404;2024-02-21T02:30:50;9.15;;;2.42;;
16784;SDS011;8509;52.178;5.404;2024-02-21T02:33:16;2.92;;;1.30;;
16784;SDS011;8509;52.178;5.404;2024-02-21T02:35:45;5.57;;;2.03;;
16784;SDS011;8509;52.178;5.404;2024-02-21T02:38:15;4.30;;;2.08;;
16784;SDS011;8509;52.178;5.404;2024-02-21T02:40:41;4.03;;;1.73;;
16784;SDS011;8509;52.178;5.404;2024-02-21T02:43:06;8.43;;;2.42;;
16784;SDS011;8509;52.178;5.404;2024-02-21T02:45:34;10.30;;;1.70;;
16784;SDS011;8509;52.178;5.404;2024-02-21T02:47:59;10.40;;;2.72;;
16784;SDS011;8509;52.178;5.404;2024-02-21T02:50:25;3.17;;;2.13;;
16784;SDS011;8509;52.178;5.404;2024-02-21T02:52:52;7.50;;;2.80;;
16784;SDS011;8509;52.178;5.404;2024-02-21T02:55:18;2.42;;;1.70;;
16784;SDS011;8509;52.178;5.404;2024-02-21T02:57:44;7.38;;;1.92;;
16784;SDS011;8509;52.178;5.404;2024-02-21T03:00:10;8.07;;;2.30;;
16784;SDS011;8509;52.178;5.404;2024-02-21T03:02:38;6.50;;;1.75;;
16784;SDS011;8509;52.178;5.404;2024-02-21T03:05:11;7.82;;;2.50;;
16784;SDS011;8509;52.178;5.404;2024-02-21T03:07:44;4.85;;;2.17;;
16784;SDS011;8509;52.178;5.404;2024-02-21T03:10:10;6.95;;;2.60;;
16784;SDS011;8509;52.178;5.404;2024-02-21T03:12:36;3.50;;;1.60;;
16784;SDS011;8509;52.178;5.404;2024-02-21T03:15:03;7.20;;;1.92;;
16784;SDS011;8509;52.178;5.404;2024-02-21T03:17:29;8.07;;;2.40;;
16784;SDS011;8509;52.178;5.404;2024-02-21T03:19:56;4.63;;;2.45;;
16784;SDS011;8509;52.178;5.404;2024-02-21T03:22:22;4.43;;;2.13;;
16784;SDS011;8509;52.178;5.404;2024-02-21T03:24:48;4.72;;;2.85;;
16784;SDS011;8509;52.178;5.404;2024-02-21T03:27:14;9.98;;;2.55;;
16784;SDS011;8509;52.178;5.404;2024-02-21T03:29:39;8.75;;;2.17;;
16784;SDS011;8509;52.178;5.404;2024-02-21T03:32:05;3.90;;;1.80;;
16784;SDS011;8509;52.178;5.404;2024-02-21T03:34:31;6.30;;;2.92;;
16784;SDS011;8509;52.178;5.404;2024-02-21T03:36:57;5.10;;;2.55;;
16784;SDS011;8509;52.178;5.404;2024-02-21T03:39:22;7.57;;;2.15;;
16784;SDS011;8509;52.178;5.404;2024-02-21T03:41:49;9.98;;;2.95;;
16784;SDS011;8509;52.178;5.404;2024-02-21T03:44:16;7.53;;;2.80;;
16784;SDS011;8509;52.178;5.404;2024-02-21T03:46:42;8.38;;;2.70;;
16784;SDS011;8509;52.178;5.404;2024-02-21T03:49:07;8.18;;;2.67;;
16784;SDS011;8509;52.178;5.404;2024-02-21T03:51:33;8.73;;;2.10;;
16784;SDS011;8509;52.178;5.404;2024-02-21T03:53:59;10.27;;;3.10;;
16784;SDS011;8509;52.178;5.404;2024-02-21T03:56:24;3.75;;;2.75;;
16784;SDS011;8509;52.178;5.404;2024-02-21T03:58:50;8.48;;;2.90;;
16784;SDS011;8509;52.178;5.404;2024-02-21T04:01:17;5.15;;;2.50;;
16784;SDS011;8509;52.178;5.404;2024-02-21T04:03:44;6.00;;;3.38;;
16784;SDS011;8509;52.178;5.404;2024-02-21T04:06:10;5.68;;;2.38;;
16784;SDS011;8509;52.178;5.404;2024-02-21T04:08:36;3.30;;;2.13;;
16784;SDS011;8509;52.178;5.404;2024-02-21T04:11:01;9.52;;;2.55;;
16784;SDS011;8509;52.178;5.404;2024-02-21T04:13:27;3.53;;;1.95;;
16784;SDS011;8509;52.178;5.404;2024-02-21T04:15:53;7.57;;;3.15;;
16784;SDS011;8509;52.178;5.404;2024-02-21T04:18:18;8.10;;;2.65;;
16784;SDS011;8509;52.178;5.404;2024-02-21T04:20:44;7.75;;;2.60;;
16784;SDS011;8509;52.178;5.404;2024-02-21T04:23:10;6.80;;;2.08;;
16784;SDS011;8509;52.178;5.404;2024-02-21T04:25:36;11.30;;;3.45;;
16784;SDS011;8509;52.178;5.404;2024-02-21T04:28:02;3.83;;;2.10;;
16784;SDS011;8509;52.178;5.404;2024-02-21T04:30:28;4.78;;;2.05;;
16784;SDS011;8509;52.178;5.404;2024-02-21T04:32:54;3.75;;;2.70;;
16784;SDS011;8509;52.178;5.404;2024-02-21T04:35:20;4.40;;;2.40;;
16784;SDS011;8509;52.178;5.404;2024-02-21T04:37:45;4.70;;;2.40;;
16784;SDS011;8509;52.178;5.404;2024-02-21T04:40:14;4.20;;;2.50;;
16784;SDS011;8509;52.178;5.404;2024-02-21T04:42:39;7.13;;;2.65;;
16784;SDS011;8509;52.178;5.404;2024-02-21T04:45:05;6.13;;;2.38;;
16784;SDS011;8509;52.178;5.404;2024-02-21T04:47:32;4.32;;;2.70;;
16784;SDS011;8509;52.178;5.404;2024-02-21T04:49:57;6.93;;;2.53;;
16784;SDS011;8509;52.178;5.404;2024-02-21T04:52:23;7.82;;;2.65;;
16784;SDS011;8509;52.178;5.404;2024-02-21T04:54:49;3.05;;;2.10;;
16784;SDS011;8509;52.178;5.404;2024-02-21T04:57:15;4.45;;;2.92;;
16784;SDS011;8509;52.178;5.404;2024-02-21T04:59:45;7.32;;;3.08;;
16784;SDS011;8509;52.178;5.404;2024-02-21T05:02:12;4.10;;;3.35;;
16784;SDS011;8509;52.178;5.404;2024-02-21T05:04:37;2.45;;;1.67;;
16784;SDS011;8509;52.178;5.404;2024-02-21T05:07:03;5.05;;;2.80;;
16784;SDS011;8509;52.178;5.404;2024-02-21T05:09:30;4.72;;;2.40;;
16784;SDS011;8509;52.178;5.404;2024-02-21T05:11:55;5.50;;;2.60;;
16784;SDS011;8509;52.178;5.404;2024-02-21T05:14:27;5.88;;;2.60;;
16784;SDS011;8509;52.178;5.404;2024-02-21T05:16:53;4.43;;;2.10;;
16784;SDS011;8509;52.178;5.404;2024-02-21T05:19:18;6.97;;;2.95;;
16784;SDS011;8509;52.178;5.404;2024-02-21T05:21:44;6.43;;;2.38;;
16784;SDS011;8509;52.178;5.404;2024-02-21T05:24:10;5.72;;;2.35;;
16784;SDS011;8509;52.178;5.404;2024-02-21T05:26:37;8.95;;;3.42;;
16784;SDS011;8509;52.178;5.404;2024-02-21T05:29:03;4.35;;;2.72;;
16784;SDS011;8509;52.178;5.404;2024-02-21T05:34:32;13.23;;;3.58;;
16784;SDS011;8509;52.178;5.404;2024-02-21T05:36:58;8.50;;;2.70;;
16784;SDS011;8509;52.178;5.404;2024-02-21T05:39:25;5.25;;;3.45;;
16784;SDS011;8509;52.178;5.404;2024-02-21T05:41:51;8.32;;;3.22;;
16784;SDS011;8509;52.178;5.404;2024-02-21T05:44:17;7.68;;;3.00;;
16784;SDS011;8509;52.178;5.404;2024-02-21T05:46:44;6.10;;;2.70;;
16784;SDS011;8509;52.178;5.404;2024-02-21T05:49:11;6.15;;;2.67;;
16784;SDS011;8509;52.178;5.404;2024-02-21T05:51:36;7.38;;;2.50;;
16784;SDS011;8509;52.178;5.404;2024-02-21T05:54:02;6.35;;;3.72;;
16784;SDS011;8509;52.178;5.404;2024-02-21T05:56:28;3.28;;;2.55;;
16784;SDS011;8509;52.178;5.404;2024-02-21T05:58:53;5.15;;;2.72;;
16784;SDS011;8509;52.178;5.404;2024-02-21T06:01:19;5.95;;;2.42;;
16784;SDS011;8509;52.178;5.404;2024-02-21T06:03:46;7.85;;;3.97;;
16784;SDS011;8509;52.178;5.404;2024-02-21T06:06:14;4.10;;;2.45;;
16784;SDS011;8509;52.178;5.404;2024-02-21T06:08:40;5.45;;;2.97;;
16784;SDS011;8509;52.178;5.404;2024-02-21T06:11:06;6.47;;;3.72;;
16784;SDS011;8509;52.178;5.404;2024-02-21T06:13:31;3.85;;;2.47;;
16784;SDS011;8509;52.178;5.404;2024-02-21T06:15:57;5.45;;;2.88;;
16784;SDS011;8509;52.178;5.404;2024-02-21T06:18:23;5.45;;;2.53;;
16784;SDS011;8509;52.178;5.404;2024-02-21T06:20:48;5.82;;;2.65;;
16784;SDS011;8509;52.178;5.404;2024-02-21T06:23:15;4.65;;;2.75;;
16784;SDS011;8509;52.178;5.404;2024-02-21T06:25:43;3.90;;;2.83;;
16784;SDS011;8509;52.178;5.404;2024-02-21T06:28:12;5.30;;;2.67;;
16784;SDS011;8509;52.178;5.404;2024-02-21T06:30:39;5.65;;;3.17;;
16784;SDS011;8509;52.178;5.404;2024-02-21T06:33:05;6.53;;;3.20;;
16784;SDS011;8509;52.178;5.404;2024-02-21T06:35:33;6.20;;;3.47;;
16784;SDS011;8509;52.178;5.404;2024-02-21T06:37:59;6.90;;;4.20;;
16784;SDS011;8509;52.178;5.404;2024-02-21T06:40:25;9.65;;;3.58;;
16784;SDS011;8509;52.178;5.404;2024-02-21T06:42:51;8.15;;;3.72;;
16784;SDS011;8509;52.178;5.404;2024-02-21T06:45:17;10.77;;;3.83;;
16784;SDS011;8509;52.178;5.404;2024-02-21T06:47:43;10.68;;;3.33;;
16784;SDS011;8509;52.178;5.404;2024-02-21T06:50:08;6.38;;;3.63;;
16784;SDS011;8509;52.178;5.404;2024-02-21T06:52:35;6.50;;;3.85;;
16784;SDS011;8509;52.178;5.404;2024-02-21T06:55:01;10.02;;;3.83;;
16784;SDS011;8509;52.178;5.404;2024-02-21T06:57:28;9.40;;;4.65;;
16784;SDS011;8509;52.178;5.404;2024-02-21T06:59:54;8.07;;;4.43;;
16784;SDS011;8509;52.178;5.404;2024-02-21T07:02:20;10.27;;;5.03;;
16784;SDS011;8509;52.178;5.404;2024-02-21T07:04:47;11.38;;;4.05;;
16784;SDS011;8509;52.178;5.404;2024-02-21T07:07:13;11.18;;;4.50;;
16784;SDS011;8509;52.178;5.404;2024-02-21T07:09:39;8.77;;;4.53;;
16784;SDS011;8509;52.178;5.404;2024-02-21T07:12:05;10.80;;;6.13;;
16784;SDS011;8509;52.178;5.404;2024-02-21T07:14:35;9.25;;;4.78;;
16784;SDS011;8509;52.178;5.404;2024-02-21T07:17:01;13.15;;;5.70;;
16784;SDS011;8509;52.178;5.404;2024-02-21T07:19:29;10.60;;;4.28;;
16784;SDS011;8509;52.178;5.404;2024-02-21T07:21:55;7.20;;;4.20;;
16784;SDS011;8509;52.178;5.404;2024-02-21T07:24:21;13.20;;;5.32;;
16784;SDS011;8509;52.178;5.404;2024-02-21T07:26:47;10.30;;;5.07;;
16784;SDS011;8509;52.178;5.404;2024-02-21T07:29:13;15.32;;;5.43;;
16784;SDS011;8509;52.178;5.404;2024-02-21T07:31:42;11.25;;;4.40;;
16784;SDS011;8509;52.178;5.404;2024-02-21T07:34:08;15.40;;;5.20;;
16784;SDS011;8509;52.178;5.404;2024-02-21T07:36:34;10.88;;;4.55;;
16784;SDS011;8509;52.178;5.404;2024-02-21T07:39:00;8.80;;;5.50;;
16784;SDS011;8509;52.178;5.404;2024-02-21T07:41:26;8.75;;;4.75;;
16784;SDS011;8509;52.178;5.404;2024-02-21T07:43:51;8.00;;;4.55;;
16784;SDS011;8509;52.178;5.404;2024-02-21T07:46:20;14.65;;;5.10;;
16784;SDS011;8509;52.178;5.404;2024-02-21T07:48:46;7.15;;;4.25;;
16784;SDS011;8509;52.178;5.404;2024-02-21T07:51:12;10.45;;;5.70;;
16784;SDS011;8509;52.178;5.404;2024-02-21T07:53:41;11.07;;;4.28;;
16784;SDS011;8509;52.178;5.404;2024-02-21T07:56:10;9.15;;;4.57;;
16784;SDS011;8509;52.178;5.404;2024-02-21T07:58:39;13.27;;;5.70;;
16784;SDS011;8509;52.178;5.404;2024-02-21T08:01:05;12.40;;;5.32;;
16784;SDS011;8509;52.178;5.404;2024-02-21T08:03:32;8.70;;;4.53;;
16784;SDS011;8509;52.178;5.404;2024-02-21T08:05:58;10.18;;;3.95;;
16784;SDS011;8509;52.178;5.404;2024-02-21T08:08:23;9.40;;;4.47;;
16784;SDS011;8509;52.178;5.404;2024-02-21T08:10:50;17.33;;;4.22;;
16784;SDS011;8509;52.178;5.404;2024-02-21T08:13:15;7.05;;;3.63;;
16784;SDS011;8509;52.178;5.404;2024-02-21T08:15:42;10.80;;;4.03;;
16784;SDS011;8509;52.178;5.404;2024-02-21T08:18:08;8.27;;;3.72;;
16784;SDS011;8509;52.178;5.404;2024-02-21T08:20:34;7.38;;;2.90;;
16784;SDS011;8509;52.178;5.404;2024-02-21T08:23:00;14.18;;;4.80;;
16784;SDS011;8509;52.178;5.404;2024-02-21T08:25:26;8.65;;;4.55;;
16784;SDS011;8509;52.178;5.404;2024-02-21T08:27:57;14.73;;;4.47;;
16784;SDS011;8509;52.178;5.404;2024-02-21T08:30:25;10.77;;;3.83;;
16784;SDS011;8509;52.178;5.404;2024-02-21T08:32:51;7.45;;;3.40;;
16784;SDS011;8509;52.178;5.404;2024-02-21T08:35:18;9.32;;;3.38;;
16784;SDS011;8509;52.178;5.404;2024-02-21T08:37:45;8.13;;;4.03;;
16784;SDS011;8509;52.178;5.404;2024-02-21T08:40:14;7.72;;;3.22;;
16784;SDS011;8509;52.178;5.404;2024-02-21T08:42:44;6.32;;;3.05;;
16784;SDS011;8509;52.178;5.404;2024-02-21T08:45:10;8.20;;;4.10;;
16784;SDS011;8509;52.178;5.404;2024-02-21T08:47:36;9.45;;;4.47;;
16784;SDS011;8509;52.178;5.404;2024-02-21T08:50:04;8.40;;;3.75;;
16784;SDS011;8509;52.178;5.404;2024-02-21T08:52:31;8.25;;;4.22;;
16784;SDS011;8509;52.178;5.404;2024-02-21T08:54:57;9.98;;;4.82;;
16784;SDS011;8509;52.178;5.404;2024-02-21T08:57:22;9.95;;;4.65;;
16784;SDS011;8509;52.178;5.404;2024-02-21T08:59:48;11.48;;;4.15;;
16784;SDS011;8509;52.178;5.404;2024-02-21T09:02:14;9.23;;;5.22;;
16784;SDS011;8509;52.178;5.404;2024-02-21T09:04:43;11.30;;;4.80;;
16784;SDS011;8509;52.178;5.404;2024-02-21T09:07:09;6.18;;;3.63;;
16784;SDS011;8509;52.178;5.404;2024-02-21T09:09:35;11.07;;;4.85;;
16784;SDS011;8509;52.178;5.404;2024-02-21T09:12:03;8.48;;;4.63;;
16784;SDS011;8509;52.178;5.404;2024-02-21T09:14:33;7.30;;;3.15;;
16784;SDS011;8509;52.178;5.404;2024-02-21T09:16:59;12.35;;;4.45;;
16784;SDS011;8509;52.178;5.404;2024-02-21T09:19:28;7.90;;;3.67;;
16784;SDS011;8509;52.178;5.404;2024-02-21T09:21:54;13.38;;;3.85;;
16784;SDS011;8509;52.178;5.404;2024-02-21T09:24:20;7.75;;;3.50;;
16784;SDS011;8509;52.178;5.404;2024-02-21T09:26:47;6.53;;;4.22;;
16784;SDS011;8509;52.178;5.404;2024-02-21T09:29:13;7.60;;;3.35;;
16784;SDS011;8509;52.178;5.404;2024-02-21T09:31:41;5.72;;;3.53;;
16784;SDS011;8509;52.178;5.404;2024-02-21T09:34:07;7.18;;;2.85;;
16784;SDS011;8509;52.178;5.404;2024-02-21T09:36:33;7.43;;;2.63;;
16784;SDS011;8509;52.178;5.404;2024-02-21T09:38:58;8.15;;;3.38;;
16784;SDS011;8509;52.178;5.404;2024-02-21T09:41:27;6.35;;;3.70;;
16784;SDS011;8509;52.178;5.404;2024-02-21T09:43:53;5.93;;;3.35;;
16784;SDS011;8509;52.178;5.404;2024-02-21T09:46:19;6.93;;;3.40;;
16784;SDS011;8509;52.178;5.404;2024-02-21T09:51:15;7.70;;;3.28;;
16784;SDS011;8509;52.178;5.404;2024-02-21T09:53:44;4.57;;;2.78;;
16784;SDS011;8509;52.178;5.404;2024-02-21T09:56:10;6.15;;;3.10;;
16784;SDS011;8509;52.178;5.404;2024-02-21T09:58:37;8.18;;;4.10;;
16784;SDS011;8509;52.178;5.404;2024-02-21T10:01:03;6.53;;;3.15;;
16784;SDS011;8509;52.178;5.404;2024-02-21T10:03:34;7.32;;;3.38;;
16784;SDS011;8509;52.178;5.404;2024-02-21T10:06:00;5.10;;;2.75;;
16784;SDS011;8509;52.178;5.404;2024-02-21T10:08:26;3.80;;;2.83;;
16784;SDS011;8509;52.178;5.404;2024-02-21T10:10:52;6.75;;;2.92;;
16784;SDS011;8509;52.178;5.404;2024-02-21T10:13:27;7.80;;;3.25;;
16784;SDS011;8509;52.178;5.404;2024-02-21T10:16:04;4.50;;;2.75;;
16784;SDS011;8509;52.178;5.404;2024-02-21T10:18:33;3.65;;;2.20;;
16784;SDS011;8509;52.178;5.404;2024-02-21T10:21:05;7.45;;;2.67;;
16784;SDS011;8509;52.178;5.404;2024-02-21T10:26:10;8.00;;;2.42;;
16784;SDS011;8509;52.178;5.404;2024-02-21T10:28:39;3.38;;;2.25;;
16784;SDS011;8509;52.178;5.404;2024-02-21T10:31:07;4.60;;;3.13;;
16784;SDS011;8509;52.178;5.404;2024-02-21T10:33:34;8.25;;;2.97;;
16784;SDS011;8509;52.178;5.404;2024-02-21T10:36:09;3.53;;;1.83;;
16784;SDS011;8509;52.178;5.404;2024-02-21T10:38:39;4.78;;;2.40;;
16784;SDS011;8509;52.178;5.404;2024-02-21T10:41:07;5.20;;;2.40;;
16784;SDS011;8509;52.178;5.404;2024-02-21T10:43:41;3.22;;;2.05;;
16784;SDS011;8509;52.178;5.404;2024-02-21T10:46:08;5.82;;;2.22;;
16784;SDS011;8509;52.178;5.404;2024-02-21T10:48:42;3.85;;;2.08;;
16784;SDS011;8509;52.178;5.404;2024-02-21T10:56:46;7.07;;;2.03;;
16784;SDS011;8509;52.178;5.404;2024-02-21T10:59:15;3.25;;;1.77;;
16784;SDS011;8509;52.178;5.404;2024-02-21T11:01:43;2.53;;;1.90;;
16784;SDS011;8509;52.178;5.404;2024-02-21T11:04:09;2.38;;;1.70;;
16784;SDS011;8509;52.178;5.404;2024-02-21T11:06:37;3.70;;;2.35;;
16784;SDS011;8509;52.178;5.404;2024-02-21T11:09:06;3.70;;;2.17;;
16784;SDS011;8509;52.178;5.404;2024-02-21T11:11:33;2.92;;;1.65;;
16784;SDS011;8509;52.178;5.404;2024-02-21T11:16:35;3.50;;;2.05;;
16784;SDS011;8509;52.178;5.404;2024-02-21T11:19:08;3.20;;;1.63;;
16784;SDS011;8509;52.178;5.404;2024-02-21T11:21:36;2.65;;;1.77;;
16784;SDS011;8509;52.178;5.404;2024-02-21T11:24:08;4.53;;;2.70;;
16784;SDS011;8509;52.178;5.404;2024-02-21T11:26:36;3.08;;;1.70;;
16784;SDS011;8509;52.178;5.404;2024-02-21T11:29:03;3.17;;;2.00;;
16784;SDS011;8509;52.178;5.404;2024-02-21T11:31:42;2.88;;;2.08;;
16784;SDS011;8509;52.178;5.404;2024-02-21T11:34:12;3.72;;;2.15;;
16784;SDS011;8509;52.178;5.404;2024-02-21T11:36:51;3.55;;;2.15;;
16784;SDS011;8509;52.178;5.404;2024-02-21T11:39:18;3.17;;;2.25;;
16784;SDS011;8509;52.178;5.404;2024-02-21T11:41:44;3.85;;;2.05;;
16784;SDS011;8509;52.178;5.404;2024-02-21T11:44:10;4.35;;;2.97;;
16784;SDS011;8509;52.178;5.404;2024-02-21T11:46:35;6.60;;;2.78;;
16784;SDS011;8509;52.178;5.404;2024-02-21T11:49:01;3.85;;;2.50;;
16784;SDS011;8509;52.178;5.404;2024-02-21T11:51:28;3.28;;;2.10;;
16784;SDS011;8509;52.178;5.404;2024-02-21T11:53:54;6.68;;;2.33;;
16784;SDS011;8509;52.178;5.404;2024-02-21T11:56:20;3.03;;;1.98;;
16784;SDS011;8509;52.178;5.404;2024-02-21T11:58:47;4.22;;;2.33;;
16784;SDS011;8509;52.178;5.404;2024-02-21T12:01:13;3.70;;;2.58;;
16784;SDS011;8509;52.178;5.404;2024-02-21T12:03:39;4.03;;;2.50;;
16784;SDS011;8509;52.178;5.404;2024-02-21T12:06:06;4.68;;;2.05;;
16784;SDS011;8509;52.178;5.404;2024-02-21T12:08:42;8.45;;;3.13;;
16784;SDS011;8509;52.178;5.404;2024-02-21T12:11:16;4.82;;;2.58;;
16784;SDS011;8509;52.178;5.404;2024-02-21T12:13:43;6.00;;;2.60;;
16784;SDS011;8509;52.178;5.404;2024-02-21T12:16:09;3.97;;;2.20;;
16784;SDS011;8509;52.178;5.404;2024-02-21T12:18:34;5.13;;;2.50;;
16784;SDS011;8509;52.178;5.404;2024-02-21T12:21:00;3.88;;;2.60;;
16784;SDS011;8509;52.178;5.404;2024-02-21T12:23:26;4.75;;;2.55;;
16784;SDS011;8509;52.178;5.404;2024-02-21T12:25:52;3.60;;;2.33;;
16784;SDS011;8509;52.178;5.404;2024-02-21T12:28:21;4.38;;;2.58;;
16784;SDS011;8509;52.178;5.404;2024-02-21T12:30:47;4.07;;;2.17;;
16784;SDS011;8509;52.178;5.404;2024-02-21T12:33:12;3.50;;;1.80;;
16784;SDS011;8509;52.178;5.404;2024-02-21T12:35:41;5.55;;;2.28;;
16784;SDS011;8509;52.178;5.404;2024-02-21T12:38:07;3.50;;;2.20;;
16784;SDS011;8509;52.178;5.404;2024-02-21T12:40:32;6.53;;;3.13;;
16784;SDS011;8509;52.178;5.404;2024-02-21T12:43:01;4.20;;;2.53;;
16784;SDS011;8509;52.178;5.404;2024-02-21T12:45:28;3.92;;;2.15;;
16784;SDS011;8509;52.178;5.404;2024-02-21T12:47:54;4.95;;;2.40;;
16784;SDS011;8509;52.178;5.404;2024-02-21T12:50:19;2.35;;;1.85;;
16784;SDS011;8509;52.178;5.404;2024-02-21T12:52:47;4.95;;;2.15;;
16784;SDS011;8509;52.178;5.404;2024-02-21T12:55:14;3.00;;;2.05;;
16784;SDS011;8509;52.178;5.404;2024-02-21T12:57:41;2.85;;;2.03;;
16784;SDS011;8509;52.178;5.404;2024-02-21T13:00:07;2.05;;;1.63;;
16784;SDS011;8509;52.178;5.404;2024-02-21T13:02:34;2.97;;;1.80;;
16784;SDS011;8509;52.178;5.404;2024-02-21T13:05:00;2.72;;;2.13;;
16784;SDS011;8509;52.178;5.404;2024-02-21T13:07:28;5.47;;;1.75;;
16784;SDS011;8509;52.178;5.404;2024-02-21T13:09:54;6.38;;;2.30;;
16784;SDS011;8509;52.178;5.404;2024-02-21T13:12:19;7.18;;;2.65;;
16784;SDS011;8509;52.178;5.404;2024-02-21T13:14:45;4.70;;;1.80;;
16784;SDS011;8509;52.178;5.404;2024-02-21T13:17:11;2.63;;;1.77;;
16784;SDS011;8509;52.178;5.404;2024-02-21T13:19:36;5.25;;;1.85;;
16784;SDS011;8509;52.178;5.404;2024-02-21T13:22:02;1.52;;;1.42;;
16784;SDS011;8509;52.178;5.404;2024-02-21T13:24:29;4.75;;;1.73;;
16784;SDS011;8509;52.178;5.404;2024-02-21T13:26:55;3.95;;;1.92;;
16784;SDS011;8509;52.178;5.404;2024-02-21T13:29:21;2.38;;;1.67;;
16784;SDS011;8509;52.178;5.404;2024-02-21T13:31:47;3.40;;;2.17;;
16784;SDS011;8509;52.178;5.404;2024-02-21T13:34:13;2.40;;;1.88;;
16784;SDS011;8509;52.178;5.404;2024-02-21T13:36:38;2.63;;;1.90;;
16784;SDS011;8509;52.178;5.404;2024-02-21T13:39:06;4.25;;;1.75;;
16784;SDS011;8509;52.178;5.404;2024-02-21T13:41:33;2.38;;;1.70;;
16784;SDS011;8509;52.178;5.404;2024-02-21T13:43:59;4.00;;;1.83;;
16784;SDS011;8509;52.178;5.404;2024-02-21T13:46:25;4.03;;;2.22;;
16784;SDS011;8509;52.178;5.404;2024-02-21T13:48:52;4.07;;;2.00;;
16784;SDS011;8509;52.178;5.404;2024-02-21T13:51:27;3.05;;;1.52;;
16784;SDS011;8509;52.178;5.404;2024-02-21T13:53:53;4.50;;;1.95;;
16784;SDS011;8509;52.178;5.404;2024-02-21T13:56:18;1.83;;;1.52;;
16784;SDS011;8509;52.178;5.404;2024-02-21T13:58:44;6.45;;;2.13;;
16784;SDS011;8509;52.178;5.404;2024-02-21T14:01:10;4.80;;;1.70;;
16784;SDS011;8509;52.178;5.404;2024-02-21T14:03:35;6.65;;;2.15;;
16784;SDS011;8509;52.178;5.404;2024-02-21T14:06:01;4.00;;;1.42;;
16784;SDS011;8509;52.178;5.404;2024-02-21T14:08:26;3.13;;;1.70;;
16784;SDS011;8509;52.178;5.404;2024-02-21T14:10:55;5.28;;;1.92;;
16784;SDS011;8509;52.178;5.404;2024-02-21T14:13:24;5.18;;;1.60;;
16784;SDS011;8509;52.178;5.404;2024-02-21T14:15:49;2.45;;;2.05;;
16784;SDS011;8509;52.178;5.404;2024-02-21T14:18:15;3.17;;;1.92;;
16784;SDS011;8509;52.178;5.404;2024-02-21T14:20:41;2.88;;;2.42;;
16784;SDS011;8509;52.178;5.404;2024-02-21T14:23:07;4.00;;;1.80;;
16784;SDS011;8509;52.178;5.404;2024-02-21T14:25:33;2.75;;;1.73;;
16784;SDS011;8509;52.178;5.404;2024-02-21T14:27:59;3.35;;;2.05;;
16784;SDS011;8509;52.178;5.404;2024-02-21T14:30:27;6.00;;;2.25;;
16784;SDS011;8509;52.178;5.404;2024-02-21T14:32:53;3.08;;;1.58;;
16784;SDS011;8509;52.178;5.404;2024-02-21T14:35:19;2.90;;;1.92;;
16784;SDS011;8509;52.178;5.404;2024-02-21T14:37:45;3.42;;;2.20;;
16784;SDS011;8509;52.178;5.404;2024-02-21T14:40:13;2.45;;;1.40;;
16784;SDS011;8509;52.178;5.404;2024-02-21T14:42:39;7.00;;;1.55;;
16784;SDS011;8509;52.178;5.404;2024-02-21T14:45:05;4.78;;;2.17;;
16784;SDS011;8509;52.178;5.404;2024-02-21T14:47:32;8.75;;;1.85;;
16784;SDS011;8509;52.178;5.404;2024-02-21T14:49:57;3.60;;;1.58;;
16784;SDS011;8509;52.178;5.404;2024-02-21T14:52:23;2.75;;;1.50;;
16784;SDS011;8509;52.178;5.404;2024-02-21T14:54:55;3.85;;;1.40;;
16784;SDS011;8509;52.178;5.404;2024-02-21T14:57:21;1.60;;;1.20;;
16784;SDS011;8509;52.178;5.404;2024-02-21T14:59:47;3.00;;;1.42;;
16784;SDS011;8509;52.178;5.404;2024-02-21T15:02:21;2.17;;;1.63;;
16784;SDS011;8509;52.178;5.404;2024-02-21T15:04:48;2.03;;;1.52;;
16784;SDS011;8509;52.178;5.404;2024-02-21T15:07:13;3.58;;;1.60;;
16784;SDS011;8509;52.178;5.404;2024-02-21T15:09:39;3.63;;;2.05;;
16784;SDS011;8509;52.178;5.404;2024-02-21T15:12:05;3.90;;;1.98;;
16784;SDS011;8509;52.178;5.404;2024-02-21T15:14:31;6.45;;;1.85;;
16784;SDS011;8509;52.178;5.404;2024-02-21T15:16:57;4.38;;;1.63;;